Lenore, Kentucky
Current Conditions -  °F | °C
As of 6:56 PM on Tuesday 25 Nov 2014 (Local Time) from KSDF Reporting Station
Broken Clouds Broken Clouds  
Wind Chill: 38°   Ceiling: 25000
Heat Index: 42°   Visibility: 10mi
Dew Point: 27°   Wind: 7mph
Humidity: 55%   Direction: 310°NW
Pressure: 30.15"   Gusts: NA
Location:  37.9212°N, 85.4864°W
Report Text: KSDF 252356Z 31006KT 10SM FEW200 BKN250 06/M03 A3015 RMK AO2 SLP212 T00561028 10083 20044 53008
Loading
Personal Weather Stations






























Interactive Weather Map New forecast layout! Learn more

10-Day Weather Forecast

Advertisements
Track Severe Weather on mobile